Crescent Springs, Kentucky
Current Conditions -  °F | °C
As of 12:16 PM on Thursday 30 Oct 2014 (Local Time) from KI69 Reporting Station
Broken Clouds Broken Clouds  
Wind Chill: 52°   Ceiling: 4000
Heat Index: 52°   Visibility: 10mi
Dew Point: 32°   Wind: 0mph
Humidity: 47%   Direction: NA
Pressure: 30.15"   Gusts: NA
Location:  39.0279°N, 84.5635°W
Report Text: KI69 301616Z AUTO 00000KT 10SM BKN040 11/00 A3015 RMK AO1
Loading
Personal Weather Stations






























Interactive Weather Map
Tropical Storm Tracking
New forecast layout! Learn more

10-Day Weather Forecast

Advertisements
Track Severe Weather on mobile